Time;durP1;ratioP1;P1;durP2;ratioP2;P2;SDS_P1;SDS_P2;PMS_P1;PMS_P2;Temp;Humidity;BMP_temperature;BMP_pressure;BME280_temperature;BME280_humidity;BME280_pressure;Samples;Min_cycle;Max_cycle;Signal;HPM_P1;HPM_P2
2021/03/29 00:00:25;;;;;;;19.58;4.78;;;;;;;;;;5057187;28;20067;-82
2021/03/29 00:02:51;;;;;;;15.95;4.35;;;;;;;;;;5068660;28;20075;-82
2021/03/29 00:05:18;;;;;;;18.35;4.72;;;;;;;;;;5071631;28;20049;-82
2021/03/29 00:07:45;;;;;;;13.70;4.63;;;;;;;;;;5069940;28;20065;-82
2021/03/29 00:10:13;;;;;;;10.82;4.53;;;;;;;;;;5058485;28;20049;-82
2021/03/29 00:12:40;;;;;;;16.35;3.95;;;;;;;;;;5074748;28;20420;-82
2021/03/29 00:15:07;;;;;;;16.55;4.72;;;;;;;;;;5058279;28;20053;-82
2021/03/29 00:17:38;;;;;;;16.27;4.88;;;;;;;;;;5058566;28;20067;-82
2021/03/29 00:20:10;;;;;;;12.88;4.60;;;;;;;;;;5054605;28;20207;-83
2021/03/29 00:22:39;;;;;;;9.65;4.18;;;;;;;;;;5056117;28;20118;-83
2021/03/29 00:25:08;;;;;;;11.95;4.55;;;;;;;;;;5073144;28;20041;-83
2021/03/29 00:27:35;;;;;;;17.35;5.40;;;;;;;;;;5057285;28;20053;-83
2021/03/29 00:30:12;;;;;;;16.70;4.78;;;;;;;;;;5058070;28;20147;-83
2021/03/29 00:32:39;;;;;;;14.77;4.47;;;;;;;;;;5071886;28;20320;-83
2021/03/29 00:35:05;;;;;;;16.08;4.93;;;;;;;;;;5072925;28;20061;-83
2021/03/29 00:37:34;;;;;;;16.83;4.10;;;;;;;;;;5060281;28;20045;-83
2021/03/29 00:40:02;;;;;;;12.13;4.75;;;;;;;;;;5062771;28;20122;-83
2021/03/29 00:42:29;;;;;;;25.65;4.95;;;;;;;;;;5063047;28;20124;-83
2021/03/29 00:44:55;;;;;;;15.48;5.05;;;;;;;;;;5058356;28;20052;-83
2021/03/29 00:47:21;;;;;;;14.30;4.57;;;;;;;;;;5072771;28;20045;-83
2021/03/29 00:49:47;;;;;;;13.85;5.15;;;;;;;;;;5059537;28;20041;-83
2021/03/29 00:52:15;;;;;;;15.82;4.65;;;;;;;;;;5071410;28;20103;-83
2021/03/29 00:54:43;;;;;;;15.23;4.40;;;;;;;;;;5071304;28;20053;-83
2021/03/29 00:57:09;;;;;;;10.63;4.38;;;;;;;;;;5069905;28;20076;-83
2021/03/29 00:59:35;;;;;;;14.95;4.60;;;;;;;;;;5069341;28;20056;-83
2021/03/29 01:02:02;;;;;;;11.43;5.05;;;;;;;;;;5066190;28;20071;-83
2021/03/29 01:04:29;;;;;;;22.13;3.90;;;;;;;;;;5059653;28;20132;-83
2021/03/29 01:06:56;;;;;;;16.23;4.90;;;;;;;;;;5058911;28;20057;-83
2021/03/29 01:09:24;;;;;;;15.98;5.03;;;;;;;;;;5060022;28;20049;-83
2021/03/29 01:11:55;;;;;;;10.93;4.50;;;;;;;;;;5058861;28;20055;-83
2021/03/29 01:14:24;;;;;;;16.95;4.93;;;;;;;;;;5076311;28;20444;-83
2021/03/29 01:16:55;;;;;;;14.82;5.22;;;;;;;;;;5059524;28;20056;-83
2021/03/29 01:19:43;;;;;;;14.75;5.00;;;;;;;;;;5058359;28;20044;-83
2021/03/29 01:22:09;;;;;;;13.90;5.13;;;;;;;;;;5036038;28;20056;-83
2021/03/29 01:24:47;;;;;;;15.45;5.20;;;;;;;;;;5058143;28;20132;-83
2021/03/29 01:27:16;;;;;;;19.42;6.57;;;;;;;;;;5058015;28;20344;-83
2021/03/29 01:29:42;;;;;;;13.55;5.55;;;;;;;;;;5074310;28;20409;-83
2021/03/29 01:32:11;;;;;;;14.07;5.07;;;;;;;;;;5058793;28;20049;-83
2021/03/29 01:34:40;;;;;;;18.70;5.80;;;;;;;;;;5058863;28;20064;-83
2021/03/29 01:37:07;;;;;;;10.05;4.75;;;;;;;;;;5059713;28;20060;-83
2021/03/29 01:39:33;;;;;;;16.20;4.95;;;;;;;;;;5072272;28;20040;-82
2021/03/29 01:42:00;;;;;;;11.57;4.53;;;;;;;;;;5073333;28;20283;-83
2021/03/29 01:44:26;;;;;;;20.70;4.57;;;;;;;;;;5078169;28;20153;-83
2021/03/29 01:46:53;;;;;;;10.68;4.28;;;;;;;;;;5057417;28;20048;-83
2021/03/29 01:49:20;;;;;;;19.48;5.50;;;;;;;;;;5058630;28;20045;-83
2021/03/29 01:51:46;;;;;;;13.57;5.18;;;;;;;;;;5088653;28;20045;-83
2021/03/29 01:54:13;;;;;;;17.55;5.32;;;;;;;;;;5070738;28;20055;-83
2021/03/29 01:56:39;;;;;;;12.63;4.35;;;;;;;;;;5055457;28;20056;-83
2021/03/29 01:59:08;;;;;;;13.23;4.55;;;;;;;;;;5055910;28;20067;-83
2021/03/29 02:01:34;;;;;;;18.33;4.75;;;;;;;;;;5054981;28;20123;-82
2021/03/29 02:04:00;;;;;;;16.27;4.15;;;;;;;;;;5055511;28;20060;-83
2021/03/29 02:06:27;;;;;;;12.95;4.50;;;;;;;;;;5056663;28;20051;-83
2021/03/29 02:08:59;;;;;;;12.60;4.18;;;;;;;;;;5055558;28;20484;-83
2021/03/29 02:11:25;;;;;;;12.75;4.22;;;;;;;;;;5057026;28;20045;-82
2021/03/29 02:13:55;;;;;;;10.80;4.70;;;;;;;;;;5055549;28;20110;-83
2021/03/29 02:16:21;;;;;;;15.98;4.57;;;;;;;;;;5055606;28;20041;-82
2021/03/29 02:18:52;;;;;;;14.27;4.85;;;;;;;;;;5055631;28;20059;-83
2021/03/29 02:21:22;;;;;;;12.10;4.40;;;;;;;;;;5070371;28;20049;-83
2021/03/29 02:23:50;;;;;;;15.48;4.03;;;;;;;;;;5055514;28;20053;-83
2021/03/29 02:26:17;;;;;;;17.08;5.25;;;;;;;;;;5057003;28;20049;-83
2021/03/29 02:28:46;;;;;;;12.13;4.97;;;;;;;;;;5069396;28;20060;-82
2021/03/29 02:31:13;;;;;;;14.35;4.55;;;;;;;;;;5071188;28;20044;-83
2021/03/29 02:33:39;;;;;;;13.98;4.75;;;;;;;;;;5070000;28;20048;-83
2021/03/29 02:36:20;;;;;;;12.25;4.28;;;;;;;;;;5086371;28;20119;-82
2021/03/29 02:38:47;;;;;;;13.93;4.30;;;;;;;;;;5062174;28;20053;-83
2021/03/29 02:41:16;;;;;;;17.38;4.53;;;;;;;;;;5074452;28;20099;-82
2021/03/29 02:43:45;;;;;;;14.75;4.53;;;;;;;;;;5073255;28;20049;-83
2021/03/29 02:46:28;;;;;;;12.75;3.88;;;;;;;;;;5050815;28;20045;-83
2021/03/29 02:48:55;;;;;;;14.93;4.80;;;;;;;;;;5039422;28;20076;-82
2021/03/29 02:51:23;;;;;;;13.82;3.80;;;;;;;;;;5058571;28;20379;-83
2021/03/29 02:53:55;;;;;;;16.45;4.18;;;;;;;;;;5041300;28;20053;-83
2021/03/29 02:56:34;;;;;;;13.65;4.63;;;;;;;;;;5056425;28;20064;-83
2021/03/29 02:59:02;;;;;;;14.35;4.43;;;;;;;;;;5040815;28;20119;-83
2021/03/29 03:01:30;;;;;;;15.07;5.00;;;;;;;;;;5055264;28;20061;-83
2021/03/29 03:03:57;;;;;;;15.60;4.18;;;;;;;;;;5037808;28;20161;-83
2021/03/29 03:06:25;;;;;;;17.65;4.20;;;;;;;;;;5053641;28;20059;-81
2021/03/29 03:08:52;;;;;;;19.75;4.55;;;;;;;;;;5040307;28;20085;-83
2021/03/29 03:11:22;;;;;;;15.07;4.22;;;;;;;;;;5042566;28;20045;-82
2021/03/29 03:13:49;;;;;;;12.10;4.18;;;;;;;;;;5041110;28;20052;-82
2021/03/29 03:16:17;;;;;;;19.75;4.80;;;;;;;;;;5038373;28;20167;-82
2021/03/29 03:18:46;;;;;;;17.25;4.60;;;;;;;;;;5036327;28;20136;-82
2021/03/29 03:21:14;;;;;;;14.52;4.43;;;;;;;;;;5052261;28;20053;-82
2021/03/29 03:23:55;;;;;;;16.10;4.85;;;;;;;;;;5036634;28;20069;-82
2021/03/29 03:26:22;;;;;;;16.27;4.28;;;;;;;;;;5037737;28;20226;-82
2021/03/29 03:28:48;;;;;;;12.65;4.20;;;;;;;;;;5036968;28;20049;-82
2021/03/29 03:31:15;;;;;;;13.45;3.85;;;;;;;;;;5039882;28;20056;-82
2021/03/29 03:33:41;;;;;;;12.35;4.18;;;;;;;;;;5050540;28;20037;-82
2021/03/29 03:36:07;;;;;;;12.15;3.60;;;;;;;;;;5052884;28;20060;-83
2021/03/29 03:38:37;;;;;;;11.73;3.70;;;;;;;;;;5069323;28;20088;-82
2021/03/29 03:41:14;;;;;;;17.45;4.68;;;;;;;;;;5067952;28;20076;-82
2021/03/29 03:43:40;;;;;;;;;;;;;;;;;;5070606;28;20048;-82
2021/03/29 03:46:45;;;;;;;14.63;4.47;;;;;;;;;;5058088;28;19994;-82
2021/03/29 03:49:13;;;;;;;18.98;4.03;;;;;;;;;;4994803;28;20050;-82
2021/03/29 03:51:42;;;;;;;10.00;3.67;;;;;;;;;;5042796;28;20113;-81
2021/03/29 03:54:11;;;;;;;15.27;3.70;;;;;;;;;;5056726;28;20356;-81
2021/03/29 03:56:46;;;;;;;13.98;3.97;;;;;;;;;;5056084;28;20049;-82
2021/03/29 03:59:15;;;;;;;13.52;3.38;;;;;;;;;;5055655;28;20041;-82
2021/03/29 04:01:44;;;;;;;14.07;4.03;;;;;;;;;;5055748;28;20064;-82
2021/03/29 04:04:10;;;;;;;11.25;3.45;;;;;;;;;;5055401;28;20060;-82
2021/03/29 04:06:39;;;;;;;11.63;3.15;;;;;;;;;;5053897;28;20186;-82
2021/03/29 04:09:05;;;;;;;17.02;3.45;;;;;;;;;;5052732;28;20206;-82
2021/03/29 04:11:36;;;;;;;12.32;4.05;;;;;;;;;;5046076;28;20096;-82
2021/03/29 04:14:02;;;;;;;10.45;2.95;;;;;;;;;;5069514;28;20064;-82
2021/03/29 04:16:29;;;;;;;12.25;3.55;;;;;;;;;;5071291;28;20057;-82
2021/03/29 04:18:58;;;;;;;12.43;2.92;;;;;;;;;;5054492;28;20073;-82
2021/03/29 04:21:24;;;;;;;11.95;3.38;;;;;;;;;;5036646;28;20091;-82
2021/03/29 04:23:51;;;;;;;13.88;3.30;;;;;;;;;;5037910;28;20404;-82
2021/03/29 04:26:17;;;;;;;13.02;2.97;;;;;;;;;;5050951;28;20386;-83
2021/03/29 04:28:43;;;;;;;9.73;3.10;;;;;;;;;;5052551;28;20384;-83
2021/03/29 04:31:12;;;;;;;11.48;3.40;;;;;;;;;;5036717;28;20332;-83
2021/03/29 04:33:38;;;;;;;13.88;3.33;;;;;;;;;;5035860;28;20081;-83
2021/03/29 04:36:08;;;;;;;17.15;2.83;;;;;;;;;;5053460;28;20188;-83
2021/03/29 04:38:34;;;;;;;14.88;3.08;;;;;;;;;;5053678;28;20442;-82
2021/03/29 04:41:07;;;;;;;15.02;3.15;;;;;;;;;;5050327;28;20067;-82
2021/03/29 04:43:33;;;;;;;12.60;3.33;;;;;;;;;;5049349;28;20072;-82
2021/03/29 04:45:59;;;;;;;20.20;4.82;;;;;;;;;;5031402;28;20053;-83
2021/03/29 04:48:25;;;;;;;17.70;3.13;;;;;;;;;;5031251;28;20050;-81
2021/03/29 04:50:54;;;;;;;12.30;3.20;;;;;;;;;;5048876;28;20057;-83
2021/03/29 04:53:20;;;;;;;12.70;3.00;;;;;;;;;;5033067;28;20045;-83
2021/03/29 04:55:47;;;;;;;13.95;3.03;;;;;;;;;;5033185;28;20053;-82
2021/03/29 04:58:16;;;;;;;16.23;3.72;;;;;;;;;;5046473;28;20122;-82
2021/03/29 05:00:42;;;;;;;15.80;4.40;;;;;;;;;;5050118;28;20101;-82
2021/03/29 05:03:08;;;;;;;11.70;3.30;;;;;;;;;;5032015;28;20175;-82
2021/03/29 05:05:34;;;;;;;11.43;3.15;;;;;;;;;;5049515;28;20049;-82
2021/03/29 05:08:00;;;;;;;12.38;3.72;;;;;;;;;;5050365;28;20051;-82
2021/03/29 05:10:26;;;;;;;9.75;2.97;;;;;;;;;;5049757;28;20049;-82
2021/03/29 05:12:53;;;;;;;16.23;3.63;;;;;;;;;;5063265;28;20041;-82
2021/03/29 05:15:20;;;;;;;12.10;3.17;;;;;;;;;;5083461;28;20080;-82
2021/03/29 05:17:46;;;;;;;11.10;3.60;;;;;;;;;;5057356;28;20436;-82
2021/03/29 05:20:15;;;;;;;8.18;2.92;;;;;;;;;;5068983;28;20117;-82
2021/03/29 05:22:44;;;;;;;12.40;3.05;;;;;;;;;;5062799;28;20072;-82
2021/03/29 05:25:25;;;;;;;14.32;3.28;;;;;;;;;;5041705;28;20097;-82
2021/03/29 05:27:51;;;;;;;13.07;3.38;;;;;;;;;;5067338;28;20033;-81
2021/03/29 05:30:17;;;;;;;14.45;2.72;;;;;;;;;;5050825;28;20049;-82
2021/03/29 05:32:46;;;;;;;15.90;3.40;;;;;;;;;;5052799;28;20127;-82
2021/03/29 05:35:16;;;;;;;11.55;2.90;;;;;;;;;;5052421;28;20045;-82
2021/03/29 05:37:47;;;;;;;11.98;3.13;;;;;;;;;;5062863;28;20033;-82
2021/03/29 05:40:17;;;;;;;12.10;2.60;;;;;;;;;;5064605;28;20045;-82
2021/03/29 05:42:44;;;;;;;12.57;3.03;;;;;;;;;;5039664;28;20049;-82
2021/03/29 05:45:11;;;;;;;10.25;3.08;;;;;;;;;;5033329;28;20291;-82
2021/03/29 05:47:40;;;;;;;16.38;3.05;;;;;;;;;;5049141;28;20049;-82
2021/03/29 05:50:10;;;;;;;14.10;4.10;;;;;;;;;;5046373;28;20045;-82
2021/03/29 05:52:36;;;;;;;14.35;3.50;;;;;;;;;;5046706;28;20052;-82
2021/03/29 05:55:09;;;;;;;11.68;2.90;;;;;;;;;;5046319;28;20238;-82
2021/03/29 06:00:30;;;;;;;10.40;2.95;;;;;;;;;;5047582;28;20053;-82
2021/03/29 06:03:16;;;;;;;17.42;3.70;;;;;;;;;;5046969;28;20433;-82
2021/03/29 06:05:42;;;;;;;12.15;3.13;;;;;;;;;;5044894;28;20049;-82
2021/03/29 06:08:09;;;;;;;17.67;3.40;;;;;;;;;;5046261;28;20049;-82
2021/03/29 06:10:35;;;;;;;11.43;3.42;;;;;;;;;;5049342;28;20551;-82
2021/03/29 06:13:13;;;;;;;14.15;2.95;;;;;;;;;;5050866;28;20115;-83
2021/03/29 06:15:43;;;;;;;14.48;3.70;;;;;;;;;;5050105;28;20124;-83
2021/03/29 06:18:09;;;;;;;19.45;3.40;;;;;;;;;;5050158;28;20059;-83
2021/03/29 06:20:55;;;;;;;10.73;3.13;;;;;;;;;;5052706;28;20342;-82
2021/03/29 06:23:21;;;;;;;11.07;3.38;;;;;;;;;;5045231;28;20389;-82
2021/03/29 06:25:50;;;;;;;12.70;3.08;;;;;;;;;;5051023;28;20176;-82
2021/03/29 06:28:26;;;;;;;20.95;3.55;;;;;;;;;;5049069;28;20053;-83
2021/03/29 06:30:55;;;;;;;8.73;2.83;;;;;;;;;;5065070;28;20061;-82
2021/03/29 06:33:24;;;;;;;15.45;3.15;;;;;;;;;;5050736;28;20048;-83
2021/03/29 06:35:52;;;;;;;13.20;2.90;;;;;;;;;;5049849;28;20304;-82
2021/03/29 06:38:20;;;;;;;12.38;3.08;;;;;;;;;;5051257;28;20112;-82
2021/03/29 06:40:47;;;;;;;14.32;3.67;;;;;;;;;;5049088;28;20057;-82
2021/03/29 06:43:30;;;;;;;15.00;3.10;;;;;;;;;;5050513;28;20045;-82
2021/03/29 06:45:56;;;;;;;13.30;3.38;;;;;;;;;;5038324;28;20054;-83
2021/03/29 06:48:28;;;;;;;10.55;3.33;;;;;;;;;;5030384;28;20072;-84
2021/03/29 06:51:06;;;;;;;12.23;3.15;;;;;;;;;;5032031;28;20107;-83
2021/03/29 06:53:33;;;;;;;12.05;3.63;;;;;;;;;;5044280;28;20256;-83
2021/03/29 06:56:51;;;;;;;12.05;4.20;;;;;;;;;;5050200;28;20115;-82
2021/03/29 06:59:26;;;;;;;10.77;3.10;;;;;;;;;;5010529;28;20045;-82
2021/03/29 07:01:55;;;;;;;8.95;3.22;;;;;;;;;;5010973;28;20041;-82
2021/03/29 07:04:28;;;;;;;10.82;3.53;;;;;;;;;;5017408;28;20327;-83
2021/03/29 07:06:55;;;;;;;16.23;3.92;;;;;;;;;;5050234;28;20049;-83
2021/03/29 07:09:21;;;;;;;15.55;3.25;;;;;;;;;;5055624;28;20401;-81
2021/03/29 07:11:50;;;;;;;14.55;3.75;;;;;;;;;;5053236;28;20072;-80
2021/03/29 07:14:20;;;;;;;9.70;3.03;;;;;;;;;;5053950;28;20216;-80
2021/03/29 07:16:47;;;;;;;11.75;2.85;;;;;;;;;;5056096;28;20063;-79
2021/03/29 07:19:13;;;;;;;12.60;3.28;;;;;;;;;;5054584;28;20045;-80
2021/03/29 07:21:40;;;;;;;9.70;2.97;;;;;;;;;;5051422;28;20167;-80
2021/03/29 07:24:10;;;;;;;11.85;3.05;;;;;;;;;;5053761;28;20171;-79
2021/03/29 07:26:53;;;;;;;12.88;3.47;;;;;;;;;;5054701;28;20115;-78
2021/03/29 07:29:25;;;;;;;12.95;3.13;;;;;;;;;;5050936;28;20196;-80
2021/03/29 07:31:52;;;;;;;11.02;3.35;;;;;;;;;;5051554;28;20142;-80
2021/03/29 07:34:42;;;;;;;14.38;3.97;;;;;;;;;;5053365;28;20078;-80
2021/03/29 07:37:25;;;;;;;12.13;3.20;;;;;;;;;;5049986;28;20205;-80
2021/03/29 07:39:57;;;;;;;13.07;3.80;;;;;;;;;;5051083;28;20053;-83
2021/03/29 07:42:38;;;;;;;16.85;3.95;;;;;;;;;;5050285;28;20162;-80
2021/03/29 07:45:10;;;;;;;8.27;2.85;;;;;;;;;;5054146;28;20045;-81
2021/03/29 07:47:57;;;;;;;9.65;3.10;;;;;;;;;;5052494;28;20204;-80
2021/03/29 07:50:56;;;;;;;10.85;3.30;;;;;;;;;;5048283;28;20372;-80
2021/03/29 07:53:37;;;;;;;6.45;2.75;;;;;;;;;;5039789;28;20037;-80
2021/03/29 07:56:06;;;;;;;9.35;2.63;;;;;;;;;;5054224;28;20048;-80
2021/03/29 07:58:42;;;;;;;12.27;3.35;;;;;;;;;;5056175;28;20067;-81
2021/03/29 08:01:13;;;;;;;9.35;3.22;;;;;;;;;;5066026;28;20233;-80
2021/03/29 08:03:42;;;;;;;16.58;3.47;;;;;;;;;;5066077;28;20049;-80
2021/03/29 08:06:28;;;;;;;9.45;2.70;;;;;;;;;;5046685;28;20316;-80
2021/03/29 08:08:54;;;;;;;11.10;3.47;;;;;;;;;;5041491;28;20050;-81
2021/03/29 08:11:20;;;;;;;13.45;3.50;;;;;;;;;;5038293;28;20057;-80
2021/03/29 08:13:51;;;;;;;11.43;3.47;;;;;;;;;;5036917;28;20057;-79
2021/03/29 08:16:27;;;;;;;12.82;3.30;;;;;;;;;;5045265;28;20097;-80
2021/03/29 08:19:25;;;;;;;7.65;2.70;;;;;;;;;;5037517;28;20049;-81
2021/03/29 08:21:55;;;;;;;13.60;3.03;;;;;;;;;;5044547;28;20057;-80
2021/03/29 08:24:32;;;;;;;14.27;3.45;;;;;;;;;;5042919;28;20063;-79
2021/03/29 08:27:27;;;;;;;10.35;3.25;;;;;;;;;;5040525;28;20162;-80
2021/03/29 08:30:13;;;;;;;13.85;3.42;;;;;;;;;;5041233;28;20132;-80
2021/03/29 08:32:45;;;;;;;10.65;3.63;;;;;;;;;;5037561;28;20053;-79
2021/03/29 08:35:14;;;;;;;11.90;3.10;;;;;;;;;;5051429;28;20105;-82
2021/03/29 08:37:47;;;;;;;9.90;2.83;;;;;;;;;;5044801;28;20049;-80
2021/03/29 08:40:14;;;;;;;13.48;3.45;;;;;;;;;;5044361;28;20218;-80
2021/03/29 08:42:42;;;;;;;7.65;3.30;;;;;;;;;;5047645;28;20111;-80
2021/03/29 08:45:09;;;;;;;9.35;3.08;;;;;;;;;;5044111;28;20049;-80
2021/03/29 08:47:37;;;;;;;12.77;3.40;;;;;;;;;;5062768;28;20045;-81
2021/03/29 08:50:06;;;;;;;9.63;3.55;;;;;;;;;;5058246;28;20108;-81
2021/03/29 08:52:42;;;;;;;8.05;3.10;;;;;;;;;;5059419;28;20040;-85
2021/03/29 08:55:11;;;;;;;15.52;3.55;;;;;;;;;;5055407;28;20052;-85
2021/03/29 08:57:38;;;;;;;11.10;2.92;;;;;;;;;;5075825;28;20056;-84
2021/03/29 09:00:09;;;;;;;10.18;3.30;;;;;;;;;;5065864;28;20099;-83
2021/03/29 09:03:11;;;;;;;12.00;2.65;;;;;;;;;;5053651;28;20243;-83
2021/03/29 09:05:37;;;;;;;10.40;3.17;;;;;;;;;;5033880;28;20371;-84
2021/03/29 09:08:11;;;;;;;8.77;2.65;;;;;;;;;;5030850;28;20063;-84
2021/03/29 09:10:38;;;;;;;10.07;3.60;;;;;;;;;;5029578;28;20089;-84
2021/03/29 09:13:06;;;;;;;10.15;3.20;;;;;;;;;;5030391;28;20107;-84
2021/03/29 09:15:36;;;;;;;8.10;2.97;;;;;;;;;;5032511;28;20185;-84
2021/03/29 09:18:06;;;;;;;10.60;2.88;;;;;;;;;;5033070;28;20182;-84
2021/03/29 09:20:34;;;;;;;7.70;3.28;;;;;;;;;;5028887;28;20049;-84
2021/03/29 09:23:01;;;;;;;7.93;2.72;;;;;;;;;;5030401;28;20045;-84
2021/03/29 09:25:34;;;;;;;10.73;3.00;;;;;;;;;;5031034;28;20214;-84
2021/03/29 09:28:22;;;;;;;8.70;3.00;;;;;;;;;;5029106;28;20063;-83
2021/03/29 09:31:09;;;;;;;10.55;3.65;;;;;;;;;;5036502;28;20140;-84
2021/03/29 09:33:39;;;;;;;9.82;3.20;;;;;;;;;;5057195;28;20083;-85
2021/03/29 09:36:09;;;;;;;8.52;2.85;;;;;;;;;;5051693;28;20063;-84
2021/03/29 09:38:39;;;;;;;7.80;3.05;;;;;;;;;;5052807;28;20057;-83
2021/03/29 09:41:19;;;;;;;7.90;3.00;;;;;;;;;;5051241;28;20411;-84
2021/03/29 09:43:53;;;;;;;10.50;2.70;;;;;;;;;;5046186;28;20053;-84
2021/03/29 09:46:32;;;;;;;8.82;2.40;;;;;;;;;;5045837;28;20056;-85
2021/03/29 09:49:08;;;;;;;9.30;3.13;;;;;;;;;;5036677;28;20128;-85
2021/03/29 09:51:35;;;;;;;7.85;3.00;;;;;;;;;;5051461;28;20049;-85
2021/03/29 09:54:21;;;;;;;10.50;2.90;;;;;;;;;;5050222;28;20049;-85
2021/03/29 09:56:47;;;;;;;12.05;2.95;;;;;;;;;;5049958;28;20108;-85
2021/03/29 09:59:13;;;;;;;10.43;3.05;;;;;;;;;;5052254;28;20409;-84
2021/03/29 10:01:43;;;;;;;8.95;3.00;;;;;;;;;;5053430;28;20512;-85
2021/03/29 10:04:13;;;;;;;8.60;2.83;;;;;;;;;;5052787;28;20041;-85
2021/03/29 10:06:56;;;;;;;9.77;2.80;;;;;;;;;;5050694;28;20064;-86
2021/03/29 10:09:32;;;;;;;9.90;3.08;;;;;;;;;;5053176;28;20410;-85
2021/03/29 10:11:58;;;;;;;9.10;3.00;;;;;;;;;;5042930;28;20048;-84
2021/03/29 10:14:31;;;;;;;10.70;3.15;;;;;;;;;;5041426;28;20046;-85
2021/03/29 10:16:57;;;;;;;6.75;2.55;;;;;;;;;;5048193;28;20117;-85
2021/03/29 10:19:29;;;;;;;8.93;3.35;;;;;;;;;;5040171;28;20073;-84
2021/03/29 10:22:04;;;;;;;6.82;2.58;;;;;;;;;;5030288;28;20061;-84
2021/03/29 10:24:34;;;;;;;8.38;2.90;;;;;;;;;;5031797;28;20601;-84
2021/03/29 10:27:06;;;;;;;9.93;2.60;;;;;;;;;;5025475;28;20112;-84
2021/03/29 10:29:39;;;;;;;8.57;3.10;;;;;;;;;;5037490;28;20053;-84
2021/03/29 10:32:13;;;;;;;6.57;2.45;;;;;;;;;;5062503;28;20460;-85
2021/03/29 10:34:44;;;;;;;9.93;3.15;;;;;;;;;;5049838;28;20072;-84
2021/03/29 10:37:18;;;;;;;6.25;2.33;;;;;;;;;;5049415;28;20056;-84
2021/03/29 10:39:50;;;;;;;7.38;2.58;;;;;;;;;;5044569;28;20068;-84
2021/03/29 10:42:17;;;;;;;13.25;2.90;;;;;;;;;;5037065;28;20140;-85
2021/03/29 10:44:47;;;;;;;7.55;2.90;;;;;;;;;;5033796;28;20512;-86
2021/03/29 10:47:19;;;;;;;6.80;2.58;;;;;;;;;;5033318;28;20289;-86
2021/03/29 10:49:45;;;;;;;8.30;2.90;;;;;;;;;;5034266;28;20071;-85
2021/03/29 10:52:16;;;;;;;9.68;2.80;;;;;;;;;;5033919;28;20045;-85
2021/03/29 10:54:48;;;;;;;6.35;2.47;;;;;;;;;;5030130;28;20052;-85
2021/03/29 10:57:15;;;;;;;8.45;3.20;;;;;;;;;;5044402;28;20106;-85
2021/03/29 10:59:44;;;;;;;8.68;2.70;;;;;;;;;;5059244;28;20105;-85
2021/03/29 11:02:22;;;;;;;8.10;2.85;;;;;;;;;;5055607;28;20582;-84
2021/03/29 11:04:51;;;;;;;7.47;2.50;;;;;;;;;;5051718;28;20154;-84
2021/03/29 11:07:20;;;;;;;7.68;2.70;;;;;;;;;;5051705;28;20056;-84
2021/03/29 11:09:46;;;;;;;6.25;2.65;;;;;;;;;;5041412;28;20107;-84
2021/03/29 11:12:16;;;;;;;9.02;2.63;;;;;;;;;;5042686;28;20102;-85
2021/03/29 11:14:42;;;;;;;10.75;3.13;;;;;;;;;;5052099;28;20045;-84
2021/03/29 11:17:10;;;;;;;9.10;3.30;;;;;;;;;;5049446;28;20101;-84
2021/03/29 11:19:38;;;;;;;5.72;2.55;;;;;;;;;;5049444;28;20106;-84
2021/03/29 11:22:07;;;;;;;7.07;2.85;;;;;;;;;;5046542;28;20247;-84
2021/03/29 11:24:33;;;;;;;6.15;2.70;;;;;;;;;;5033744;28;20045;-85
2021/03/29 11:27:00;;;;;;;6.25;2.88;;;;;;;;;;5052352;28;20070;-85
2021/03/29 11:29:26;;;;;;;8.32;3.40;;;;;;;;;;5054750;28;20055;-84
2021/03/29 11:31:52;;;;;;;7.32;3.20;;;;;;;;;;5056141;28;20073;-85
2021/03/29 11:34:18;;;;;;;6.65;2.60;;;;;;;;;;5065977;28;20109;-85
2021/03/29 11:36:48;;;;;;;9.48;2.60;;;;;;;;;;5063136;28;20068;-83
2021/03/29 11:39:22;;;;;;;11.85;2.83;;;;;;;;;;5052287;28;20379;-85
2021/03/29 11:41:48;;;;;;;11.30;2.70;;;;;;;;;;5051864;28;20052;-84
2021/03/29 11:44:19;;;;;;;8.32;3.40;;;;;;;;;;5041114;28;20044;-85
2021/03/29 11:46:49;;;;;;;8.27;2.70;;;;;;;;;;5034413;28;20073;-84
2021/03/29 11:49:15;;;;;;;8.40;2.95;;;;;;;;;;5034517;28;20040;-84
2021/03/29 11:51:42;;;;;;;9.73;3.00;;;;;;;;;;5032169;28;20080;-86
2021/03/29 11:54:10;;;;;;;9.02;3.55;;;;;;;;;;5032756;28;20080;-84
2021/03/29 11:56:40;;;;;;;10.30;3.78;;;;;;;;;;5050701;28;20352;-84
2021/03/29 11:59:06;;;;;;;8.90;3.03;;;;;;;;;;5046047;28;20053;-84
2021/03/29 12:01:51;;;;;;;8.35;3.38;;;;;;;;;;5063235;28;20204;-84
2021/03/29 12:05:03;;;;;;;10.43;2.92;;;;;;;;;;5066874;28;20051;-85
2021/03/29 12:07:18;;;;;;;8.02;3.63;;;;;;;;;;5046806;28;20087;-85
2021/03/29 12:11:49;;;;;;;12.20;3.80;;;;;;;;;;5049321;28;20068;-83
2021/03/29 12:12:46;;;;;;;9.85;3.20;;;;;;;;;;5043460;28;20053;-85
2021/03/29 12:15:15;;;;;;;8.63;3.40;;;;;;;;;;5061497;28;20032;-84
2021/03/29 12:17:46;;;;;;;8.25;3.10;;;;;;;;;;5065095;28;20045;-84
2021/03/29 12:20:25;;;;;;;7.53;2.20;;;;;;;;;;5044697;28;20069;-85
2021/03/29 12:22:51;;;;;;;7.03;2.92;;;;;;;;;;5031690;28;20064;-84
2021/03/29 12:25:23;;;;;;;8.23;2.88;;;;;;;;;;5036129;28;20049;-84
2021/03/29 12:27:50;;;;;;;8.48;3.30;;;;;;;;;;5056607;28;20037;-85
2021/03/29 12:30:21;;;;;;;5.25;2.88;;;;;;;;;;5059476;28;20102;-84
2021/03/29 12:32:49;;;;;;;9.13;2.85;;;;;;;;;;5078821;28;20049;-83
2021/03/29 12:35:19;;;;;;;8.02;3.05;;;;;;;;;;5057968;28;20124;-83
2021/03/29 12:37:52;;;;;;;8.52;2.78;;;;;;;;;;5047685;28;20045;-84
2021/03/29 12:40:32;;;;;;;9.60;3.25;;;;;;;;;;5048372;28;20049;-84
2021/03/29 12:45:28;;;;;;;8.07;3.10;;;;;;;;;;5040556;28;20062;-85
2021/03/29 12:47:57;;;;;;;7.32;3.63;;;;;;;;;;5029925;28;20049;-83
2021/03/29 12:50:24;;;;;;;13.27;3.22;;;;;;;;;;5028955;28;20056;-83
2021/03/29 12:52:50;;;;;;;8.98;3.30;;;;;;;;;;5028434;28;20388;-83
2021/03/29 12:55:24;;;;;;;7.10;3.25;;;;;;;;;;5043779;28;20320;-85
2021/03/29 12:57:57;;;;;;;8.63;2.78;;;;;;;;;;5027191;28;20178;-84
2021/03/29 13:00:29;;;;;;;8.13;3.35;;;;;;;;;;5028808;28;20091;-84
2021/03/29 13:02:59;;;;;;;10.93;3.30;;;;;;;;;;5028940;28;20056;-84
2021/03/29 13:05:44;;;;;;;7.22;3.13;;;;;;;;;;5032995;28;20401;-84
2021/03/29 13:08:16;;;;;;;9.35;3.33;;;;;;;;;;5034849;28;20045;-84
2021/03/29 13:13:35;;;;;;;10.32;3.53;;;;;;;;;;5036320;28;20121;-83
2021/03/29 13:16:02;;;;;;;10.00;3.70;;;;;;;;;;5035482;28;20312;-84
2021/03/29 13:18:30;;;;;;;8.75;3.35;;;;;;;;;;5039935;28;20054;-84
2021/03/29 13:20:58;;;;;;;10.88;3.35;;;;;;;;;;5028178;28;20180;-84
2021/03/29 13:23:26;;;;;;;8.68;3.10;;;;;;;;;;5037256;28;20234;-84
2021/03/29 13:25:58;;;;;;;11.05;3.10;;;;;;;;;;5045281;28;20056;-84
2021/03/29 13:28:25;;;;;;;6.53;3.13;;;;;;;;;;5049235;28;20040;-84
2021/03/29 13:30:53;;;;;;;6.78;3.38;;;;;;;;;;5050386;28;20057;-84
2021/03/29 13:33:19;;;;;;;7.78;3.78;;;;;;;;;;5049650;28;20229;-84
2021/03/29 13:35:46;;;;;;;10.25;3.20;;;;;;;;;;5045933;28;20063;-83
2021/03/29 13:38:19;;;;;;;7.60;2.80;;;;;;;;;;5060688;28;20663;-83
2021/03/29 13:40:54;;;;;;;11.57;3.70;;;;;;;;;;5067246;28;20052;-83
2021/03/29 13:43:26;;;;;;;9.70;3.67;;;;;;;;;;5037839;28;20037;-84
2021/03/29 13:45:52;;;;;;;10.68;3.42;;;;;;;;;;5046161;28;20333;-84
2021/03/29 13:48:21;;;;;;;7.63;3.30;;;;;;;;;;5046635;28;20099;-82
2021/03/29 13:50:53;;;;;;;12.85;3.90;;;;;;;;;;5049286;28;20059;-84
2021/03/29 13:53:25;;;;;;;10.18;3.67;;;;;;;;;;5047615;28;20056;-84
2021/03/29 13:55:53;;;;;;;8.30;4.07;;;;;;;;;;5043445;28;20080;-84
2021/03/29 13:58:23;;;;;;;10.75;3.15;;;;;;;;;;5056061;28;20196;-82
2021/03/29 14:00:51;;;;;;;9.90;3.80;;;;;;;;;;5029395;28;20197;-82
2021/03/29 14:03:18;;;;;;;10.40;3.55;;;;;;;;;;5027273;28;20189;-81
2021/03/29 14:05:45;;;;;;;12.00;3.35;;;;;;;;;;5044667;28;20101;-81
2021/03/29 14:08:11;;;;;;;7.85;3.88;;;;;;;;;;5045476;28;20348;-82
2021/03/29 14:10:38;;;;;;;8.45;3.92;;;;;;;;;;5043537;28;20166;-82
2021/03/29 14:13:07;;;;;;;10.43;3.95;;;;;;;;;;5046210;28;20056;-81
2021/03/29 14:15:41;;;;;;;12.07;4.53;;;;;;;;;;5043474;28;20048;-82
2021/03/29 14:18:07;;;;;;;10.85;4.53;;;;;;;;;;5044415;28;20107;-82
2021/03/29 14:20:36;;;;;;;13.60;3.90;;;;;;;;;;5044547;28;20123;-82
2021/03/29 14:23:10;;;;;;;10.07;4.13;;;;;;;;;;5040076;28;20051;-82
2021/03/29 14:25:38;;;;;;;10.23;4.07;;;;;;;;;;5044799;28;20301;-82
2021/03/29 14:28:06;;;;;;;7.57;4.50;;;;;;;;;;5046552;28;20064;-82
2021/03/29 14:30:33;;;;;;;9.70;4.15;;;;;;;;;;5040167;28;20051;-81
2021/03/29 14:35:57;;;;;;;11.07;4.05;;;;;;;;;;5037647;28;20344;-81
2021/03/29 14:45:52;;;;;;;13.65;5.25;;;;;;;;;;5049580;28;20136;-80
2021/03/29 14:48:19;;;;;;;8.45;3.83;;;;;;;;;;5049608;28;20427;-80
2021/03/29 14:50:46;;;;;;;11.75;4.13;;;;;;;;;;5047510;28;20451;-80
2021/03/29 14:53:13;;;;;;;11.52;4.68;;;;;;;;;;5049622;28;20061;-81
2021/03/29 14:55:41;;;;;;;10.73;4.68;;;;;;;;;;5047783;28;20061;-81
2021/03/29 14:58:07;;;;;;;10.10;4.50;;;;;;;;;;5047799;28;20293;-81
2021/03/29 15:00:36;;;;;;;14.43;4.75;;;;;;;;;;5044467;28;20053;-80
2021/03/29 15:03:10;;;;;;;10.77;5.15;;;;;;;;;;5048403;28;20045;-81
2021/03/29 15:05:44;;;;;;;9.65;4.20;;;;;;;;;;5043200;28;20386;-81
2021/03/29 15:08:16;;;;;;;10.18;4.20;;;;;;;;;;5046236;28;20370;-81
2021/03/29 15:10:42;;;;;;;11.18;4.20;;;;;;;;;;5046124;28;20041;-81